sensor_id;sensor_type;location;lat;lon;timestamp;pressure;altitude;pressure_sealevel;temperature;humidity
13015;BME280;6573;57.696;11.950;2023-08-07T00:02:23;99700.53;;;17.08;100.00
13015;BME280;6573;57.696;11.950;2023-08-07T00:04:54;99699.97;;;17.20;100.00
13015;BME280;6573;57.696;11.950;2023-08-07T00:07:22;99698.59;;;17.30;100.00
13015;BME280;6573;57.696;11.950;2023-08-07T00:09:51;99678.41;;;17.26;100.00
13015;BME280;6573;57.696;11.950;2023-08-07T00:12:19;99664.63;;;17.18;100.00
13015;BME280;6573;57.696;11.950;2023-08-07T00:14:49;99664.91;;;17.12;100.00
13015;BME280;6573;57.696;11.950;2023-08-07T00:17:17;99654.59;;;17.06;100.00
13015;BME280;6573;57.696;11.950;2023-08-07T00:19:45;99670.66;;;17.03;100.00
13015;BME280;6573;57.696;11.950;2023-08-07T00:22:15;99661.84;;;17.21;100.00
13015;BME280;6573;57.696;11.950;2023-08-07T00:24:43;99657.94;;;17.28;100.00
13015;BME280;6573;57.696;11.950;2023-08-07T00:27:12;99657.47;;;17.37;100.00
13015;BME280;6573;57.696;11.950;2023-08-07T00:29:41;99654.34;;;17.29;100.00
13015;BME280;6573;57.696;11.950;2023-08-07T00:32:09;99630.81;;;17.57;100.00
13015;BME280;6573;57.696;11.950;2023-08-07T00:34:37;99632.00;;;17.33;100.00
13015;BME280;6573;57.696;11.950;2023-08-07T00:37:06;99630.84;;;17.20;100.00
13015;BME280;6573;57.696;11.950;2023-08-07T00:39:35;99628.16;;;17.21;100.00
13015;BME280;6573;57.696;11.950;2023-08-07T00:42:04;99640.75;;;17.35;100.00
13015;BME280;6573;57.696;11.950;2023-08-07T00:44:34;99651.25;;;17.38;100.00
13015;BME280;6573;57.696;11.950;2023-08-07T00:47:03;99623.84;;;17.19;100.00
13015;BME280;6573;57.696;11.950;2023-08-07T00:49:31;99629.97;;;17.38;100.00
13015;BME280;6573;57.696;11.950;2023-08-07T00:51:59;99638.72;;;17.40;100.00
13015;BME280;6573;57.696;11.950;2023-08-07T00:54:28;99618.22;;;17.25;100.00
13015;BME280;6573;57.696;11.950;2023-08-07T00:57:04;99620.97;;;17.23;100.00
13015;BME280;6573;57.696;11.950;2023-08-07T00:59:38;99605.88;;;17.24;100.00
13015;BME280;6573;57.696;11.950;2023-08-07T01:02:07;99595.38;;;17.21;100.00
13015;BME280;6573;57.696;11.950;2023-08-07T01:04:35;99594.22;;;17.26;100.00
13015;BME280;6573;57.696;11.950;2023-08-07T01:07:04;99583.81;;;17.22;100.00
13015;BME280;6573;57.696;11.950;2023-08-07T01:09:32;99570.69;;;17.19;100.00
13015;BME280;6573;57.696;11.950;2023-08-07T01:12:10;99572.09;;;17.09;100.00
13015;BME280;6573;57.696;11.950;2023-08-07T01:14:48;99554.28;;;17.28;100.00
13015;BME280;6573;57.696;11.950;2023-08-07T01:17:19;99547.06;;;17.30;100.00
13015;BME280;6573;57.696;11.950;2023-08-07T01:19:50;99552.88;;;17.21;100.00
13015;BME280;6573;57.696;11.950;2023-08-07T01:22:21;99535.03;;;17.23;100.00
13015;BME280;6573;57.696;11.950;2023-08-07T01:24:50;99526.72;;;17.12;100.00
13015;BME280;6573;57.696;11.950;2023-08-07T01:27:32;99522.00;;;17.18;100.00
13015;BME280;6573;57.696;11.950;2023-08-07T01:30:11;99512.53;;;17.30;100.00
13015;BME280;6573;57.696;11.950;2023-08-07T01:32:45;99463.28;;;17.06;100.00
13015;BME280;6573;57.696;11.950;2023-08-07T01:35:17;99501.59;;;17.19;100.00
13015;BME280;6573;57.696;11.950;2023-08-07T01:37:50;99500.19;;;17.29;100.00
13015;BME280;6573;57.696;11.950;2023-08-07T01:40:20;99485.81;;;17.16;100.00
13015;BME280;6573;57.696;11.950;2023-08-07T01:42:49;99487.84;;;17.11;100.00
13015;BME280;6573;57.696;11.950;2023-08-07T01:45:22;99485.66;;;17.19;100.00
13015;BME280;6573;57.696;11.950;2023-08-07T01:47:51;99467.69;;;17.24;100.00
13015;BME280;6573;57.696;11.950;2023-08-07T01:50:20;99462.38;;;17.24;100.00
13015;BME280;6573;57.696;11.950;2023-08-07T01:52:50;99444.38;;;17.29;100.00
13015;BME280;6573;57.696;11.950;2023-08-07T01:55:19;99442.81;;;17.25;100.00
13015;BME280;6573;57.696;11.950;2023-08-07T01:57:48;99435.13;;;17.36;100.00
13015;BME280;6573;57.696;11.950;2023-08-07T02:00:16;99428.44;;;17.29;100.00
13015;BME280;6573;57.696;11.950;2023-08-07T02:02:44;99423.28;;;17.26;100.00
13015;BME280;6573;57.696;11.950;2023-08-07T02:05:14;99410.75;;;17.28;100.00
13015;BME280;6573;57.696;11.950;2023-08-07T02:07:42;99416.06;;;17.28;100.00
13015;BME280;6573;57.696;11.950;2023-08-07T02:10:12;99424.03;;;17.28;100.00
13015;BME280;6573;57.696;11.950;2023-08-07T02:12:40;99410.75;;;17.28;100.00
13015;BME280;6573;57.696;11.950;2023-08-07T02:15:09;99411.66;;;17.44;100.00
13015;BME280;6573;57.696;11.950;2023-08-07T02:17:37;99405.13;;;17.34;100.00
13015;BME280;6573;57.696;11.950;2023-08-07T02:20:09;99385.25;;;17.41;100.00
13015;BME280;6573;57.696;11.950;2023-08-07T02:22:38;99379.78;;;17.27;100.00
13015;BME280;6573;57.696;11.950;2023-08-07T02:25:07;99386.28;;;17.38;100.00
13015;BME280;6573;57.696;11.950;2023-08-07T02:27:36;99381.47;;;17.45;100.00
13015;BME280;6573;57.696;11.950;2023-08-07T02:30:05;99371.19;;;17.39;100.00
13015;BME280;6573;57.696;11.950;2023-08-07T02:32:34;99363.97;;;17.41;100.00
13015;BME280;6573;57.696;11.950;2023-08-07T02:35:02;99344.41;;;17.42;100.00
13015;BME280;6573;57.696;11.950;2023-08-07T02:37:30;99353.16;;;17.44;100.00
13015;BME280;6573;57.696;11.950;2023-08-07T02:39:59;99351.47;;;17.43;100.00
13015;BME280;6573;57.696;11.950;2023-08-07T02:42:27;99335.34;;;17.46;100.00
13015;BME280;6573;57.696;11.950;2023-08-07T02:44:57;99331.44;;;17.53;100.00
13015;BME280;6573;57.696;11.950;2023-08-07T02:47:25;99326.94;;;17.38;100.00
13015;BME280;6573;57.696;11.950;2023-08-07T02:49:53;99318.78;;;17.41;100.00
13015;BME280;6573;57.696;11.950;2023-08-07T02:52:21;99306.88;;;17.48;100.00
13015;BME280;6573;57.696;11.950;2023-08-07T02:54:50;99295.91;;;17.54;100.00
13015;BME280;6573;57.696;11.950;2023-08-07T02:57:18;99297.13;;;17.64;100.00
13015;BME280;6573;57.696;11.950;2023-08-07T02:59:47;99302.44;;;17.64;100.00
13015;BME280;6573;57.696;11.950;2023-08-07T03:02:16;99301.97;;;17.73;100.00
13015;BME280;6573;57.696;11.950;2023-08-07T03:04:44;99284.44;;;17.69;100.00
13015;BME280;6573;57.696;11.950;2023-08-07T03:07:13;99276.47;;;17.69;100.00
13015;BME280;6573;57.696;11.950;2023-08-07T03:09:45;99261.63;;;17.65;100.00
13015;BME280;6573;57.696;11.950;2023-08-07T03:12:13;99262.16;;;17.56;100.00
13015;BME280;6573;57.696;11.950;2023-08-07T03:14:41;99267.63;;;17.53;100.00
13015;BME280;6573;57.696;11.950;2023-08-07T03:17:10;99265.06;;;17.67;100.00
13015;BME280;6573;57.696;11.950;2023-08-07T03:19:41;99260.09;;;17.61;100.00
13015;BME280;6573;57.696;11.950;2023-08-07T03:22:10;99268.47;;;17.69;100.00
13015;BME280;6573;57.696;11.950;2023-08-07T03:24:38;99265.41;;;17.61;100.00
13015;BME280;6573;57.696;11.950;2023-08-07T03:27:06;99252.88;;;17.63;100.00
13015;BME280;6573;57.696;11.950;2023-08-07T03:29:35;99253.38;;;17.70;100.00
13015;BME280;6573;57.696;11.950;2023-08-07T03:32:03;99257.84;;;17.85;100.00
13015;BME280;6573;57.696;11.950;2023-08-07T03:34:31;99252.84;;;17.79;100.00
13015;BME280;6573;57.696;11.950;2023-08-07T03:37:01;99246.88;;;17.75;100.00
13015;BME280;6573;57.696;11.950;2023-08-07T03:39:29;99243.94;;;17.80;100.00
13015;BME280;6573;57.696;11.950;2023-08-07T03:41:57;99243.84;;;17.81;100.00
13015;BME280;6573;57.696;11.950;2023-08-07T03:44:26;99240.03;;;17.71;100.00
13015;BME280;6573;57.696;11.950;2023-08-07T03:46:54;99237.97;;;17.61;100.00
13015;BME280;6573;57.696;11.950;2023-08-07T03:49:24;99252.84;;;17.79;100.00
13015;BME280;6573;57.696;11.950;2023-08-07T03:51:52;99237.94;;;17.76;100.00
13015;BME280;6573;57.696;11.950;2023-08-07T03:54:22;99233.31;;;17.64;100.00
13015;BME280;6573;57.696;11.950;2023-08-07T03:56:51;99211.69;;;17.55;100.00
13015;BME280;6573;57.696;11.950;2023-08-07T03:59:20;99215.28;;;17.69;100.00
13015;BME280;6573;57.696;11.950;2023-08-07T04:01:48;99216.66;;;17.76;100.00
13015;BME280;6573;57.696;11.950;2023-08-07T04:04:16;99211.75;;;17.84;100.00
13015;BME280;6573;57.696;11.950;2023-08-07T04:06:44;99216.84;;;17.73;100.00
13015;BME280;6573;57.696;11.950;2023-08-07T04:09:12;99212.41;;;17.58;100.00
13015;BME280;6573;57.696;11.950;2023-08-07T04:11:42;99225.16;;;17.67;100.00
13015;BME280;6573;57.696;11.950;2023-08-07T04:14:11;99217.19;;;17.67;100.00
13015;BME280;6573;57.696;11.950;2023-08-07T04:16:39;99184.94;;;17.58;100.00
13015;BME280;6573;57.696;11.950;2023-08-07T04:19:07;99144.59;;;17.49;100.00
13015;BME280;6573;57.696;11.950;2023-08-07T04:21:36;99181.69;;;17.68;100.00
13015;BME280;6573;57.696;11.950;2023-08-07T04:24:04;99180.81;;;17.83;100.00
13015;BME280;6573;57.696;11.950;2023-08-07T04:26:37;99188.66;;;18.00;100.00
13015;BME280;6573;57.696;11.950;2023-08-07T04:29:07;99173.41;;;17.88;100.00
13015;BME280;6573;57.696;11.950;2023-08-07T04:31:35;99174.50;;;17.84;100.00
13015;BME280;6573;57.696;11.950;2023-08-07T04:34:04;99162.47;;;17.63;100.00
13015;BME280;6573;57.696;11.950;2023-08-07T04:36:32;99169.63;;;17.77;100.00
13015;BME280;6573;57.696;11.950;2023-08-07T04:39:00;99170.88;;;17.71;100.00
13015;BME280;6573;57.696;11.950;2023-08-07T04:41:28;99166.34;;;17.87;100.00
13015;BME280;6573;57.696;11.950;2023-08-07T04:43:57;99159.69;;;17.80;100.00
13015;BME280;6573;57.696;11.950;2023-08-07T04:46:27;99164.63;;;17.86;100.00
13015;BME280;6573;57.696;11.950;2023-08-07T04:48:55;99169.88;;;18.18;100.00
13015;BME280;6573;57.696;11.950;2023-08-07T04:51:24;99166.34;;;17.87;100.00
13015;BME280;6573;57.696;11.950;2023-08-07T04:53:52;99171.09;;;17.82;100.00
13015;BME280;6573;57.696;11.950;2023-08-07T04:56:23;99171.81;;;17.70;100.00
13015;BME280;6573;57.696;11.950;2023-08-07T04:58:51;99181.13;;;17.77;100.00
13015;BME280;6573;57.696;11.950;2023-08-07T05:01:20;99162.75;;;17.88;100.00
13015;BME280;6573;57.696;11.950;2023-08-07T05:03:50;99179.63;;;17.73;100.00
13015;BME280;6573;57.696;11.950;2023-08-07T05:06:18;99168.78;;;17.76;100.00
13015;BME280;6573;57.696;11.950;2023-08-07T05:08:47;99170.66;;;17.74;100.00
13015;BME280;6573;57.696;11.950;2023-08-07T05:11:15;99167.25;;;17.72;100.00
13015;BME280;6573;57.696;11.950;2023-08-07T05:13:43;99168.25;;;17.85;100.00
13015;BME280;6573;57.696;11.950;2023-08-07T05:16:11;99156.75;;;17.85;100.00
13015;BME280;6573;57.696;11.950;2023-08-07T05:18:40;99148.88;;;17.83;100.00
13015;BME280;6573;57.696;11.950;2023-08-07T05:21:09;99130.63;;;17.91;100.00
13015;BME280;6573;57.696;11.950;2023-08-07T05:23:38;99149.09;;;17.94;100.00
13015;BME280;6573;57.696;11.950;2023-08-07T05:26:06;99142.41;;;17.87;100.00
13015;BME280;6573;57.696;11.950;2023-08-07T05:28:34;99146.97;;;17.85;100.00
13015;BME280;6573;57.696;11.950;2023-08-07T05:31:02;99134.53;;;17.86;100.00
13015;BME280;6573;57.696;11.950;2023-08-07T05:33:31;99147.84;;;17.86;100.00
13015;BME280;6573;57.696;11.950;2023-08-07T05:35:59;99136.50;;;17.82;100.00
13015;BME280;6573;57.696;11.950;2023-08-07T05:38:28;99140.47;;;17.75;100.00
13015;BME280;6573;57.696;11.950;2023-08-07T05:40:57;99139.94;;;17.84;100.00
13015;BME280;6573;57.696;11.950;2023-08-07T05:43:26;99124.53;;;17.75;100.00
13015;BME280;6573;57.696;11.950;2023-08-07T05:45:54;99136.16;;;17.88;100.00
13015;BME280;6573;57.696;11.950;2023-08-07T05:48:22;99131.69;;;17.89;100.00
13015;BME280;6573;57.696;11.950;2023-08-07T05:50:51;99114.31;;;17.83;100.00
13015;BME280;6573;57.696;11.950;2023-08-07T05:53:21;99132.19;;;17.95;100.00
13015;BME280;6573;57.696;11.950;2023-08-07T05:55:51;99131.03;;;17.85;100.00
13015;BME280;6573;57.696;11.950;2023-08-07T05:58:20;99129.94;;;18.03;100.00
13015;BME280;6573;57.696;11.950;2023-08-07T06:00:48;99133.16;;;18.08;100.00
13015;BME280;6573;57.696;11.950;2023-08-07T06:03:16;99123.78;;;17.87;100.00
13015;BME280;6573;57.696;11.950;2023-08-07T06:05:45;99117.88;;;17.82;100.00
13015;BME280;6573;57.696;11.950;2023-08-07T06:08:15;99111.84;;;18.08;100.00
13015;BME280;6573;57.696;11.950;2023-08-07T06:10:43;99112.59;;;17.96;100.00
13015;BME280;6573;57.696;11.950;2023-08-07T06:13:13;99117.38;;;18.05;100.00
13015;BME280;6573;57.696;11.950;2023-08-07T06:16:00;99105.47;;;17.97;100.00
13015;BME280;6573;57.696;11.950;2023-08-07T06:18:28;99096.84;;;18.07;100.00
13015;BME280;6573;57.696;11.950;2023-08-07T06:20:57;99089.84;;;18.21;100.00
13015;BME280;6573;57.696;11.950;2023-08-07T06:23:26;99089.91;;;18.05;100.00
13015;BME280;6573;57.696;11.950;2023-08-07T06:25:54;99091.81;;;18.03;100.00
13015;BME280;6573;57.696;11.950;2023-08-07T06:28:27;99078.22;;;18.07;100.00
13015;BME280;6573;57.696;11.950;2023-08-07T06:31:01;99087.16;;;18.06;100.00
13015;BME280;6573;57.696;11.950;2023-08-07T06:33:30;99081.28;;;18.16;100.00
13015;BME280;6573;57.696;11.950;2023-08-07T06:35:58;99080.13;;;18.05;100.00
13015;BME280;6573;57.696;11.950;2023-08-07T06:38:27;99076.91;;;18.29;100.00
13015;BME280;6573;57.696;11.950;2023-08-07T06:40:57;99065.31;;;18.30;100.00
13015;BME280;6573;57.696;11.950;2023-08-07T06:43:27;99038.13;;;18.25;100.00
13015;BME280;6573;57.696;11.950;2023-08-07T06:45:56;99066.66;;;18.51;100.00
13015;BME280;6573;57.696;11.950;2023-08-07T06:48:24;99070.47;;;18.47;100.00
13015;BME280;6573;57.696;11.950;2023-08-07T06:50:53;99049.19;;;18.47;100.00
13015;BME280;6573;57.696;11.950;2023-08-07T06:53:21;99023.66;;;18.29;100.00
13015;BME280;6573;57.696;11.950;2023-08-07T06:55:50;99043.47;;;18.53;100.00
13015;BME280;6573;57.696;11.950;2023-08-07T06:58:22;99038.16;;;18.53;100.00
13015;BME280;6573;57.696;11.950;2023-08-07T07:00:51;99034.94;;;18.48;100.00
13015;BME280;6573;57.696;11.950;2023-08-07T07:03:20;99019.09;;;18.45;100.00
13015;BME280;6573;57.696;11.950;2023-08-07T07:05:49;99004.06;;;18.44;100.00
13015;BME280;6573;57.696;11.950;2023-08-07T07:08:17;99008.44;;;18.45;100.00
13015;BME280;6573;57.696;11.950;2023-08-07T07:10:45;99011.97;;;18.59;100.00
13015;BME280;6573;57.696;11.950;2023-08-07T07:13:14;99014.50;;;18.75;100.00
13015;BME280;6573;57.696;11.950;2023-08-07T07:15:43;99018.13;;;18.74;100.00
13015;BME280;6573;57.696;11.950;2023-08-07T07:18:13;99005.97;;;18.70;100.00
13015;BME280;6573;57.696;11.950;2023-08-07T07:20:41;99012.22;;;18.69;100.00
13015;BME280;6573;57.696;11.950;2023-08-07T07:23:09;98994.75;;;18.65;100.00
13015;BME280;6573;57.696;11.950;2023-08-07T07:25:38;99005.47;;;18.78;100.00
13015;BME280;6573;57.696;11.950;2023-08-07T07:28:06;99000.41;;;18.87;100.00
13015;BME280;6573;57.696;11.950;2023-08-07T07:30:34;98988.00;;;18.86;100.00
13015;BME280;6573;57.696;11.950;2023-08-07T07:33:03;99000.41;;;18.87;100.00
13015;BME280;6573;57.696;11.950;2023-08-07T07:35:37;98998.88;;;18.83;100.00
13015;BME280;6573;57.696;11.950;2023-08-07T07:38:06;98999.09;;;18.80;100.00
13015;BME280;6573;57.696;11.950;2023-08-07T07:40:34;98985.78;;;18.66;100.00
13015;BME280;6573;57.696;11.950;2023-08-07T07:43:02;98973.44;;;18.65;100.00
13015;BME280;6573;57.696;11.950;2023-08-07T07:45:30;98984.41;;;18.87;100.00
13015;BME280;6573;57.696;11.950;2023-08-07T07:48:00;98970.47;;;18.69;100.00
13015;BME280;6573;57.696;11.950;2023-08-07T07:50:29;98994.66;;;18.93;100.00
13015;BME280;6573;57.696;11.950;2023-08-07T07:52:58;98985.09;;;19.03;100.00
13015;BME280;6573;57.696;11.950;2023-08-07T07:55:28;98981.00;;;19.76;100.00
13015;BME280;6573;57.696;11.950;2023-08-07T07:57:56;98976.00;;;19.84;100.00
13015;BME280;6573;57.696;11.950;2023-08-07T08:00:24;98980.56;;;19.70;100.00
13015;BME280;6573;57.696;11.950;2023-08-07T08:02:53;98977.38;;;19.65;100.00
13015;BME280;6573;57.696;11.950;2023-08-07T08:05:22;98976.94;;;19.71;100.00
13015;BME280;6573;57.696;11.950;2023-08-07T08:07:50;98976.53;;;19.77;100.00
13015;BME280;6573;57.696;11.950;2023-08-07T08:10:20;98975.88;;;19.61;100.00
13015;BME280;6573;57.696;11.950;2023-08-07T08:12:49;98979.72;;;19.17;100.00
13015;BME280;6573;57.696;11.950;2023-08-07T08:15:17;98988.72;;;19.02;100.00
13015;BME280;6573;57.696;11.950;2023-08-07T08:17:45;98977.25;;;19.14;100.00
13015;BME280;6573;57.696;11.950;2023-08-07T08:20:14;98989.59;;;19.15;100.00
13015;BME280;6573;57.696;11.950;2023-08-07T08:22:44;98994.09;;;19.15;100.00
13015;BME280;6573;57.696;11.950;2023-08-07T08:25:13;98996.47;;;19.19;100.00
13015;BME280;6573;57.696;11.950;2023-08-07T08:27:43;98981.84;;;19.12;100.00
13015;BME280;6573;57.696;11.950;2023-08-07T08:30:12;98976.38;;;19.14;100.00
13015;BME280;6573;57.696;11.950;2023-08-07T08:32:42;98984.69;;;19.09;100.00
13015;BME280;6573;57.696;11.950;2023-08-07T08:35:10;98991.53;;;19.13;100.00
13015;BME280;6573;57.696;11.950;2023-08-07T08:37:39;98985.38;;;19.25;100.00
13015;BME280;6573;57.696;11.950;2023-08-07T08:40:09;98985.31;;;19.13;100.00
13015;BME280;6573;57.696;11.950;2023-08-07T08:42:39;98984.28;;;19.15;100.00
13015;BME280;6573;57.696;11.950;2023-08-07T08:45:09;98987.44;;;19.08;100.00
13015;BME280;6573;57.696;11.950;2023-08-07T08:47:39;98984.63;;;19.23;100.00
13015;BME280;6573;57.696;11.950;2023-08-07T08:50:09;98969.56;;;19.10;100.00
13015;BME280;6573;57.696;11.950;2023-08-07T08:52:42;98976.63;;;19.23;100.00
13015;BME280;6573;57.696;11.950;2023-08-07T08:55:12;98976.63;;;19.23;100.00
13015;BME280;6573;57.696;11.950;2023-08-07T08:57:41;98980.03;;;19.25;100.00
13015;BME280;6573;57.696;11.950;2023-08-07T09:00:14;98967.69;;;19.24;100.00
13015;BME280;6573;57.696;11.950;2023-08-07T09:02:45;98956.03;;;19.25;100.00
13015;BME280;6573;57.696;11.950;2023-08-07T09:05:15;98959.78;;;19.35;100.00
13015;BME280;6573;57.696;11.950;2023-08-07T09:07:44;98949.38;;;19.32;100.00
13015;BME280;6573;57.696;11.950;2023-08-07T09:10:14;98956.03;;;19.25;100.00
13015;BME280;6573;57.696;11.950;2023-08-07T09:12:47;98953.72;;;19.33;100.00
13015;BME280;6573;57.696;11.950;2023-08-07T09:15:23;98952.56;;;19.37;100.00
13015;BME280;6573;57.696;11.950;2023-08-07T09:17:54;98947.69;;;19.44;100.00
13015;BME280;6573;57.696;11.950;2023-08-07T09:20:23;98949.06;;;19.37;100.00
13015;BME280;6573;57.696;11.950;2023-08-07T09:22:51;98936.56;;;19.25;100.00
13015;BME280;6573;57.696;11.950;2023-08-07T09:25:27;98926.72;;;19.25;100.00
13015;BME280;6573;57.696;11.950;2023-08-07T09:27:56;98910.19;;;19.20;100.00
13015;BME280;6573;57.696;11.950;2023-08-07T09:30:29;98915.84;;;19.28;100.00
13015;BME280;6573;57.696;11.950;2023-08-07T09:32:58;98900.06;;;19.25;100.00
13015;BME280;6573;57.696;11.950;2023-08-07T09:35:26;98920.56;;;19.37;100.00
13015;BME280;6573;57.696;11.950;2023-08-07T09:37:56;98921.44;;;19.51;100.00
13015;BME280;6573;57.696;11.950;2023-08-07T09:40:24;98930.44;;;19.50;100.00
13015;BME280;6573;57.696;11.950;2023-08-07T09:42:53;98932.97;;;19.64;100.00
13015;BME280;6573;57.696;11.950;2023-08-07T09:45:23;98929.88;;;19.70;100.00
13015;BME280;6573;57.696;11.950;2023-08-07T09:47:59;98929.88;;;19.70;100.00
13015;BME280;6573;57.696;11.950;2023-08-07T09:50:28;98931.69;;;19.82;100.00
13015;BME280;6573;57.696;11.950;2023-08-07T09:52:57;98919.97;;;19.84;100.00
13015;BME280;6573;57.696;11.950;2023-08-07T09:55:28;98909.91;;;19.75;100.00
13015;BME280;6573;57.696;11.950;2023-08-07T09:57:56;98911.41;;;19.92;100.00
13015;BME280;6573;57.696;11.950;2023-08-07T10:00:24;98914.59;;;19.97;100.00
13015;BME280;6573;57.696;11.950;2023-08-07T10:02:54;98907.56;;;19.96;100.00
13015;BME280;6573;57.696;11.950;2023-08-07T10:05:24;98907.94;;;20.15;100.00
13015;BME280;6573;57.696;11.950;2023-08-07T10:07:55;98882.81;;;19.69;100.00
13015;BME280;6573;57.696;11.950;2023-08-07T10:10:24;98897.75;;;19.84;100.00
13015;BME280;6573;57.696;11.950;2023-08-07T10:12:53;98882.72;;;19.70;100.00
13015;BME280;6573;57.696;11.950;2023-08-07T10:15:23;98887.72;;;19.75;100.00
13015;BME280;6573;57.696;11.950;2023-08-07T10:17:51;98868.28;;;19.73;100.00
13015;BME280;6573;57.696;11.950;2023-08-07T10:20:26;98899.44;;;19.85;100.00
13015;BME280;6573;57.696;11.950;2023-08-07T10:22:57;98891.44;;;19.85;100.00
13015;BME280;6573;57.696;11.950;2023-08-07T10:25:27;98892.84;;;19.78;100.00
13015;BME280;6573;57.696;11.950;2023-08-07T10:27:57;98886.75;;;19.76;100.00
13015;BME280;6573;57.696;11.950;2023-08-07T10:30:27;98888.16;;;19.81;100.00
13015;BME280;6573;57.696;11.950;2023-08-07T10:32:58;98881.94;;;19.93;100.00
13015;BME280;6573;57.696;11.950;2023-08-07T10:35:31;98877.03;;;19.87;100.00
13015;BME280;6573;57.696;11.950;2023-08-07T10:38:05;98876.41;;;19.84;100.00
13015;BME280;6573;57.696;11.950;2023-08-07T10:40:58;98878.47;;;20.29;100.00
13015;BME280;6573;57.696;11.950;2023-08-07T10:43:28;98874.38;;;20.36;100.00
13015;BME280;6573;57.696;11.950;2023-08-07T10:46:03;98877.31;;;20.44;100.00
13015;BME280;6573;57.696;11.950;2023-08-07T10:48:40;98885.84;;;20.13;100.00
13015;BME280;6573;57.696;11.950;2023-08-07T10:51:12;98874.41;;;20.11;100.00
13015;BME280;6573;57.696;11.950;2023-08-07T10:53:43;98872.66;;;20.35;100.00
13015;BME280;6573;57.696;11.950;2023-08-07T10:56:16;98873.84;;;20.55;100.00
13015;BME280;6573;57.696;11.950;2023-08-07T10:58:49;98884.19;;;20.83;100.00
13015;BME280;6573;57.696;11.950;2023-08-07T11:01:20;98881.53;;;20.59;100.00
13015;BME280;6573;57.696;11.950;2023-08-07T11:03:51;98887.66;;;20.73;100.00
13015;BME280;6573;57.696;11.950;2023-08-07T11:06:25;98891.75;;;20.65;100.00
13015;BME280;6573;57.696;11.950;2023-08-07T11:08:54;98890.00;;;20.53;100.00
13015;BME280;6573;57.696;11.950;2023-08-07T11:11:23;98894.16;;;20.57;100.00
13015;BME280;6573;57.696;11.950;2023-08-07T11:13:52;98892.47;;;20.56;100.00
13015;BME280;6573;57.696;11.950;2023-08-07T11:16:20;98894.72;;;20.74;100.00
13015;BME280;6573;57.696;11.950;2023-08-07T11:18:49;98877.81;;;20.26;100.00
13015;BME280;6573;57.696;11.950;2023-08-07T11:21:18;98886.69;;;20.26;100.00
13015;BME280;6573;57.696;11.950;2023-08-07T11:23:48;98883.38;;;20.10;100.00
13015;BME280;6573;57.696;11.950;2023-08-07T11:26:16;98875.91;;;20.15;100.00
13015;BME280;6573;57.696;11.950;2023-08-07T11:28:49;98886.97;;;20.34;100.00
13015;BME280;6573;57.696;11.950;2023-08-07T11:31:17;98877.16;;;20.22;100.00
13015;BME280;6573;57.696;11.950;2023-08-07T11:33:46;98883.59;;;20.07;100.00
13015;BME280;6573;57.696;11.950;2023-08-07T11:36:14;98860.34;;;20.09;100.00
13015;BME280;6573;57.696;11.950;2023-08-07T11:38:44;98863.22;;;20.06;100.00
13015;BME280;6573;57.696;11.950;2023-08-07T11:41:15;98868.88;;;20.14;100.00
13015;BME280;6573;57.696;11.950;2023-08-07T11:43:43;98870.78;;;20.12;100.00
13015;BME280;6573;57.696;11.950;2023-08-07T11:46:13;98861.13;;;20.22;100.00
13015;BME280;6573;57.696;11.950;2023-08-07T11:48:43;98869.38;;;20.19;100.00
13015;BME280;6573;57.696;11.950;2023-08-07T11:51:12;98856.88;;;20.20;100.00
13015;BME280;6573;57.696;11.950;2023-08-07T11:53:41;98862.19;;;20.32;100.00
13015;BME280;6573;57.696;11.950;2023-08-07T11:56:10;98860.03;;;20.37;100.00
13015;BME280;6573;57.696;11.950;2023-08-07T11:58:44;98864.94;;;20.43;100.00
13015;BME280;6573;57.696;11.950;2023-08-07T12:01:15;98866.88;;;20.41;100.00
13015;BME280;6573;57.696;11.950;2023-08-07T12:03:54;98870.28;;;20.43;100.00
13015;BME280;6573;57.696;11.950;2023-08-07T12:06:24;98871.75;;;20.47;100.00
13015;BME280;6573;57.696;11.950;2023-08-07T12:08:54;98831.22;;;20.30;100.00
13015;BME280;6573;57.696;11.950;2023-08-07T12:11:23;98853.63;;;20.40;100.00
13015;BME280;6573;57.696;11.950;2023-08-07T12:13:54;98840.56;;;20.83;100.00
13015;BME280;6573;57.696;11.950;2023-08-07T12:16:22;98829.09;;;21.04;100.00
13015;BME280;6573;57.696;11.950;2023-08-07T12:18:51;98828.94;;;20.95;100.00
13015;BME280;6573;57.696;11.950;2023-08-07T12:21:21;98832.09;;;20.89;100.00
13015;BME280;6573;57.696;11.950;2023-08-07T12:23:54;98823.31;;;20.87;100.00
13015;BME280;6573;57.696;11.950;2023-08-07T12:26:23;98842.53;;;20.92;100.00
13015;BME280;6573;57.696;11.950;2023-08-07T12:28:53;98811.22;;;21.05;100.00
13015;BME280;6573;57.696;11.950;2023-08-07T12:31:21;98820.06;;;21.18;100.00
13015;BME280;6573;57.696;11.950;2023-08-07T12:33:50;98823.41;;;21.09;100.00
13015;BME280;6573;57.696;11.950;2023-08-07T12:36:19;98833.50;;;20.82;100.00
13015;BME280;6573;57.696;11.950;2023-08-07T12:38:48;98835.16;;;20.60;100.00
13015;BME280;6573;57.696;11.950;2023-08-07T12:41:16;98823.00;;;20.56;100.00
13015;BME280;6573;57.696;11.950;2023-08-07T12:43:47;98826.19;;;20.61;100.00
13015;BME280;6573;57.696;11.950;2023-08-07T12:46:17;98827.72;;;20.53;100.00
13015;BME280;6573;57.696;11.950;2023-08-07T12:48:48;98832.66;;;20.46;100.00
13015;BME280;6573;57.696;11.950;2023-08-07T12:51:16;98835.16;;;20.60;100.00
13015;BME280;6573;57.696;11.950;2023-08-07T12:53:45;98831.75;;;20.58;100.00
13015;BME280;6573;57.696;11.950;2023-08-07T12:56:14;98821.66;;;20.62;100.00
13015;BME280;6573;57.696;11.950;2023-08-07T12:58:42;98808.66;;;20.57;100.00
13015;BME280;6573;57.696;11.950;2023-08-07T13:01:12;98817.59;;;20.45;100.00
13015;BME280;6573;57.696;11.950;2023-08-07T13:03:42;98803.53;;;20.54;100.00